Time;durP1;ratioP1;P1;durP2;ratioP2;P2;SDS_P1;SDS_P2;PMS_P1;PMS_P2;Temp;Humidity;BMP_temperature;BMP_pressure;BME280_temperature;BME280_humidity;BME280_pressure;Samples;Min_cycle;Max_cycle;Signal;HPM_P1;HPM_P2
2022/11/30 00:02:06;;;;;;;10.05;5.68;;;;;;;8.64;83.88;101272.28;5049562;28;20100;-73
2022/11/30 00:04:32;;;;;;;7.55;5.72;;;;;;;8.74;83.64;101267.19;5049655;28;20021;-74
2022/11/30 00:06:57;;;;;;;11.80;6.90;;;;;;;8.70;82.83;101268.34;5049294;28;20485;-73
2022/11/30 00:09:23;;;;;;;9.10;6.65;;;;;;;8.70;81.85;101279.06;5049481;28;20025;-73
2022/11/30 00:11:48;;;;;;;8.35;6.57;;;;;;;8.72;81.98;101282.50;5049474;28;20480;-73
2022/11/30 00:14:14;;;;;;;12.85;7.50;;;;;;;8.75;81.93;101276.94;5049113;28;20838;-73
2022/11/30 00:16:39;;;;;;;11.52;6.90;;;;;;;8.83;82.23;101296.09;5050175;28;20465;-73
2022/11/30 00:19:04;;;;;;;11.85;6.85;;;;;;;8.92;81.73;101316.13;5052178;28;20028;-75
2022/11/30 00:21:30;;;;;;;11.25;6.88;;;;;;;8.88;80.68;101319.94;5052268;28;20089;-73
2022/11/30 00:23:55;;;;;;;10.43;7.00;;;;;;;8.74;80.75;101312.78;5048728;28;20507;-73
2022/11/30 00:26:21;;;;;;;12.10;7.85;;;;;;;8.76;80.59;101316.22;5049600;28;20089;-72
2022/11/30 00:28:47;;;;;;;14.35;8.20;;;;;;;8.68;80.43;101324.72;5049237;28;20403;-73
2022/11/30 00:31:15;;;;;;;14.50;7.57;;;;;;;8.64;80.48;101308.94;5049200;28;20021;-73
2022/11/30 00:33:41;;;;;;;10.38;7.47;;;;;;;8.60;80.44;101313.63;5049211;28;20087;-73
2022/11/30 00:36:14;;;;;;;11.88;7.30;;;;;;;8.50;80.74;101309.78;5049026;28;20510;-73
2022/11/30 00:38:40;;;;;;;11.32;7.53;;;;;;;8.23;80.84;101268.56;5049238;28;20040;-73
2022/11/30 00:41:06;;;;;;;10.32;7.10;;;;;;;8.40;81.14;101319.38;5048960;28;20029;-73
2022/11/30 00:43:31;;;;;;;10.80;7.60;;;;;;;8.42;81.08;101309.41;5048908;28;20091;-73
2022/11/30 00:45:57;;;;;;;26.15;9.05;;;;;;;8.16;81.84;101276.13;5048916;28;20105;-73
2022/11/30 00:48:23;;;;;;;11.13;7.50;;;;;;;8.41;81.30;101304.16;5049020;28;20116;-73
2022/11/30 00:50:49;;;;;;;11.15;7.28;;;;;;;8.21;81.03;101278.53;5048856;28;20049;-73
2022/11/30 00:53:15;;;;;;;11.32;8.05;;;;;;;8.33;81.73;101304.63;5049254;28;20029;-74
2022/11/30 00:55:43;;;;;;;12.85;8.27;;;;;;;8.20;81.34;101271.44;5047605;28;20385;-74
2022/11/30 00:58:08;;;;;;;11.38;7.80;;;;;;;8.33;81.23;101307.28;5052399;28;20100;-76
2022/11/30 01:00:34;;;;;;;11.90;7.45;;;;;;;8.37;81.61;101314.19;5052730;28;20036;-73
2022/11/30 01:03:00;;;;;;;11.15;7.70;;;;;;;8.30;81.40;101299.44;5052514;28;20036;-73
2022/11/30 01:05:25;;;;;;;13.43;7.72;;;;;;;8.28;82.02;101297.81;5052733;28;20029;-76
2022/11/30 01:07:50;;;;;;;14.50;9.13;;;;;;;8.29;82.03;101294.19;5052535;28;20595;-76
2022/11/30 01:10:16;;;;;;;11.57;8.23;;;;;;;8.21;82.34;101299.97;5052518;28;20035;-73
2022/11/30 01:12:42;;;;;;;11.25;7.97;;;;;;;8.11;82.46;101286.28;5052262;28;20025;-73
2022/11/30 01:15:07;;;;;;;15.20;7.63;;;;;;;8.12;82.44;101289.81;5052592;28;20025;-74
2022/11/30 01:17:33;;;;;;;9.82;8.10;;;;;;;8.09;82.56;101277.47;5052623;28;20086;-74
2022/11/30 01:19:59;;;;;;;11.88;8.00;;;;;;;8.11;82.62;101274.69;5052993;28;20546;-73
2022/11/30 01:22:25;;;;;;;11.23;7.60;;;;;;;8.05;82.81;101275.94;5052696;28;20408;-75
2022/11/30 01:24:50;;;;;;;8.05;6.80;;;;;;;8.02;83.01;101265.41;5052570;28;20036;-74
2022/11/30 01:27:15;;;;;;;9.45;7.13;;;;;;;8.04;83.59;101243.88;5052996;28;20028;-72
2022/11/30 01:29:41;;;;;;;10.68;7.85;;;;;;;7.95;83.19;101213.16;5053481;28;20032;-72
2022/11/30 01:32:06;;;;;;;11.25;6.55;;;;;;;8.06;83.15;101233.94;5052572;28;20025;-73
2022/11/30 01:34:33;;;;;;;9.50;6.65;;;;;;;8.02;83.22;101248.47;5051864;28;20625;-73
2022/11/30 01:36:58;;;;;;;9.23;6.47;;;;;;;7.99;83.63;101232.56;5051895;28;20036;-73
2022/11/30 01:39:24;;;;;;;9.32;6.90;;;;;;;7.94;83.50;101235.53;5051793;28;20029;-73
2022/11/30 01:41:49;;;;;;;7.53;6.50;;;;;;;7.79;83.68;101230.25;5056047;28;20033;-73
2022/11/30 01:44:15;;;;;;;10.07;6.63;;;;;;;7.95;83.93;101253.31;5052700;28;20037;-73
2022/11/30 01:46:51;;;;;;;9.45;7.00;;;;;;;7.97;84.37;101251.44;5051644;28;20090;-73
2022/11/30 01:49:32;;;;;;;14.32;7.68;;;;;;;7.93;84.14;101247.19;5051656;28;20037;-72
2022/11/30 01:52:18;;;;;;;8.85;7.03;;;;;;;8.02;84.42;101272.56;5051428;28;20377;-74
2022/11/30 01:55:22;;;;;;;9.23;6.68;;;;;;;8.09;83.68;101285.50;5052026;28;20039;-73
2022/11/30 01:57:55;;;;;;;7.65;5.82;;;;;;;8.06;83.13;101268.75;5009843;28;20049;-72
2022/11/30 02:00:20;;;;;;;9.90;6.65;;;;;;;8.00;83.72;101271.81;5009508;28;20046;-73
2022/11/30 02:02:55;;;;;;;7.85;6.03;;;;;;;8.03;83.27;101255.56;5009356;28;20034;-73
2022/11/30 02:05:21;;;;;;;10.98;6.95;;;;;;;7.94;83.81;101264.13;5009622;28;20460;-72
2022/11/30 02:07:47;;;;;;;11.65;6.43;;;;;;;7.68;83.52;101223.72;5008704;28;20394;-73
2022/11/30 02:10:15;;;;;;;9.68;5.90;;;;;;;7.96;83.12;101254.19;5008905;28;20040;-74
2022/11/30 02:13:09;;;;;;;11.43;6.55;;;;;;;7.97;83.79;101261.28;5009022;28;20030;-73
2022/11/30 02:15:55;;;;;;;8.80;6.03;;;;;;;7.98;83.22;101260.34;5008917;28;20049;-73
2022/11/30 02:18:42;;;;;;;8.38;5.53;;;;;;;8.04;82.61;101268.00;5008892;28;20055;-72
2022/11/30 02:21:17;;;;;;;9.15;5.95;;;;;;;7.96;83.04;101270.25;5009025;28;20046;-74
2022/11/30 02:24:14;;;;;;;10.40;5.82;;;;;;;7.99;82.70;101262.91;5008956;28;20037;-73
2022/11/30 02:26:55;;;;;;;8.02;5.55;;;;;;;7.90;83.03;101275.97;4950451;28;20075;-75
2022/11/30 02:29:26;;;;;;;7.60;5.10;;;;;;;7.91;83.54;101288.44;4950605;29;20415;-73
2022/11/30 02:32:16;;;;;;;8.80;5.65;;;;;;;7.88;83.30;101283.25;4953327;29;20223;-73
2022/11/30 02:34:45;;;;;;;7.93;5.60;;;;;;;7.69;83.76;101264.75;4999717;28;20049;-73
2022/11/30 02:37:13;;;;;;;8.82;5.70;;;;;;;7.81;83.59;101287.25;5009543;28;20528;-73
2022/11/30 02:39:39;;;;;;;10.65;5.80;;;;;;;7.67;83.29;101254.09;5008736;28;20030;-73
2022/11/30 02:42:10;;;;;;;8.38;5.40;;;;;;;7.91;82.79;101278.59;5008483;28;20183;-73
2022/11/30 02:44:36;;;;;;;10.90;6.20;;;;;;;7.88;82.81;101259.16;5008665;28;20048;-72
2022/11/30 02:47:08;;;;;;;8.68;5.45;;;;;;;7.86;82.96;101263.75;4991886;28;20053;-73
2022/11/30 02:49:51;;;;;;;6.70;5.95;;;;;;;7.78;82.53;101263.31;5008344;28;20486;-73
2022/11/30 02:52:21;;;;;;;6.80;5.20;;;;;;;7.72;83.28;101261.00;5008169;28;20034;-72
2022/11/30 02:54:46;;;;;;;9.15;6.22;;;;;;;7.79;83.86;101257.91;5008361;28;20040;-72
2022/11/30 02:57:12;;;;;;;9.15;6.50;;;;;;;7.76;83.59;101257.22;5008089;28;20062;-73
2022/11/30 02:59:38;;;;;;;7.70;5.20;;;;;;;7.79;83.60;101252.53;5008340;28;20040;-74
2022/11/30 03:02:03;;;;;;;10.95;6.15;;;;;;;7.76;83.29;101257.22;4991680;28;20030;-73
2022/11/30 03:04:29;;;;;;;9.32;5.55;;;;;;;7.80;83.15;101254.25;5048446;28;20037;-74
2022/11/30 03:06:54;;;;;;;10.50;6.88;;;;;;;7.77;83.46;101253.59;5052016;28;20024;-74
2022/11/30 03:09:20;;;;;;;9.55;7.13;;;;;;;7.82;82.76;101252.34;5052163;28;20087;-74
2022/11/30 03:11:45;;;;;;;8.35;5.43;;;;;;;7.75;82.84;101245.63;5049896;28;20083;-74
2022/11/30 03:14:10;;;;;;;9.43;6.00;;;;;;;7.72;82.84;101252.97;5050028;28;20099;-73
2022/11/30 03:16:37;;;;;;;7.07;5.93;;;;;;;7.76;82.78;101235.78;5050121;28;20029;-73
2022/11/30 03:19:02;;;;;;;7.90;5.90;;;;;;;7.76;83.00;101235.78;5049593;28;20086;-73
2022/11/30 03:21:28;;;;;;;8.20;6.22;;;;;;;7.75;82.86;101242.09;5049205;28;20451;-73
2022/11/30 03:23:53;;;;;;;7.22;4.72;;;;;;;7.71;82.89;101237.88;5049717;28;20466;-72
2022/11/30 03:26:18;;;;;;;7.93;5.60;;;;;;;7.74;83.08;101243.91;5049914;28;20025;-72
2022/11/30 03:28:44;;;;;;;7.15;5.50;;;;;;;7.77;82.41;101253.59;5047583;28;20037;-72
2022/11/30 03:31:11;;;;;;;9.70;6.35;;;;;;;7.75;82.68;101248.31;5049755;28;20090;-74
2022/11/30 03:33:36;;;;;;;7.72;6.35;;;;;;;7.87;82.76;101244.03;5050134;28;20361;-73
2022/11/30 03:36:04;;;;;;;7.35;5.05;;;;;;;7.53;81.79;101189.84;5049803;28;20024;-74
2022/11/30 03:38:30;;;;;;;10.23;6.00;;;;;;;7.70;81.72;101220.97;5055837;28;20060;-73
2022/11/30 03:41:03;;;;;;;8.73;6.07;;;;;;;7.80;82.06;101226.63;5052945;28;20021;-73
2022/11/30 03:43:29;;;;;;;10.77;7.50;;;;;;;7.74;81.99;101233.19;5050400;28;20033;-73
2022/11/30 03:45:54;;;;;;;8.32;6.43;;;;;;;7.64;81.92;101224.84;5049496;28;20032;-73
2022/11/30 03:48:21;;;;;;;9.88;6.35;;;;;;;7.65;82.16;101215.88;5046958;28;20071;-72
2022/11/30 03:50:48;;;;;;;8.63;5.78;;;;;;;7.59;82.15;101234.09;5049171;28;20052;-73
2022/11/30 03:53:16;;;;;;;10.60;6.13;;;;;;;7.64;82.37;101232.88;5049528;28;20029;-73
2022/11/30 03:55:41;;;;;;;9.77;6.53;;;;;;;7.67;82.90;101238.03;5049281;28;20108;-73
2022/11/30 03:58:07;;;;;;;9.45;6.80;;;;;;;7.61;82.43;101238.41;5049265;28;20111;-74
2022/11/30 04:00:32;;;;;;;9.63;6.93;;;;;;;7.65;82.12;101245.31;5049059;28;20025;-72
2022/11/30 04:02:58;;;;;;;8.52;6.68;;;;;;;7.65;82.54;101239.97;5049229;28;20029;-72
2022/11/30 04:05:23;;;;;;;8.68;6.28;;;;;;;7.62;82.40;101242.81;5049090;28;20476;-73
2022/11/30 04:07:48;;;;;;;10.60;6.40;;;;;;;7.62;82.12;101241.97;5048934;28;20051;-75
2022/11/30 04:10:14;;;;;;;8.98;6.97;;;;;;;7.53;82.31;101230.00;5049301;28;20025;-74
2022/11/30 04:12:39;;;;;;;9.63;7.28;;;;;;;7.40;83.23;101218.28;5048120;28;20047;-75
2022/11/30 04:15:05;;;;;;;7.90;6.57;;;;;;;7.45;83.62;101236.75;5048192;28;20036;-75
2022/11/30 04:17:31;;;;;;;8.75;6.80;;;;;;;7.23;83.25;101199.69;5034336;28;20048;-75
2022/11/30 04:19:56;;;;;;;10.77;7.13;;;;;;;7.43;83.59;101230.63;5029388;28;20025;-74
2022/11/30 04:22:21;;;;;;;9.68;7.05;;;;;;;7.53;83.03;101235.34;5029191;28;20035;-75
2022/11/30 04:24:47;;;;;;;9.65;7.18;;;;;;;7.45;82.79;101253.69;5029193;28;20033;-76
2022/11/30 04:27:12;;;;;;;9.93;6.90;;;;;;;7.29;82.85;101230.56;5029397;28;20457;-76
2022/11/30 04:29:38;;;;;;;10.25;7.25;;;;;;;7.54;82.89;101263.84;5029461;28;20479;-75
2022/11/30 04:32:03;;;;;;;11.00;7.38;;;;;;;7.48;82.88;101266.88;5031691;28;20013;-75
2022/11/30 04:34:30;;;;;;;9.73;7.28;;;;;;;7.44;82.76;101265.31;5035638;28;20033;-73
2022/11/30 04:36:55;;;;;;;10.40;7.60;;;;;;;6.92;83.26;101176.53;5033195;28;20461;-73
2022/11/30 04:39:21;;;;;;;11.25;7.57;;;;;;;7.44;82.98;101264.44;5032899;28;20045;-72
2022/11/30 04:41:46;;;;;;;12.38;8.27;;;;;;;7.28;83.06;101256.44;5033106;28;20033;-75
2022/11/30 04:44:12;;;;;;;11.55;7.28;;;;;;;7.42;83.13;101272.59;5038631;28;20032;-74
2022/11/30 04:46:37;;;;;;;11.02;7.95;;;;;;;7.42;83.20;101264.56;5045690;28;20025;-74
2022/11/30 04:49:03;;;;;;;10.00;7.60;;;;;;;7.39;83.75;101270.09;5054830;28;20037;-75
2022/11/30 04:51:28;;;;;;;19.00;9.52;;;;;;;7.40;83.74;101271.78;5052736;28;20033;-75
2022/11/30 04:53:54;;;;;;;12.20;8.48;;;;;;;7.45;83.41;101267.06;5052722;28;20476;-75
2022/11/30 04:56:19;;;;;;;8.95;7.45;;;;;;;7.42;83.15;101274.41;5052833;28;20052;-75
2022/11/30 04:58:44;;;;;;;12.38;8.18;;;;;;;7.26;83.50;101252.16;5052362;28;20064;-74
2022/11/30 05:01:10;;;;;;;20.20;9.32;;;;;;;7.41;83.38;101261.97;5052826;28;20040;-76
2022/11/30 05:03:35;;;;;;;13.60;7.72;;;;;;;7.41;83.49;101265.50;5052260;28;20037;-75
2022/11/30 05:06:02;;;;;;;11.52;8.13;;;;;;;7.46;83.61;101271.44;5052402;28;20021;-75
2022/11/30 05:08:27;;;;;;;11.75;8.13;;;;;;;7.45;83.45;101276.88;5052788;28;20040;-76
2022/11/30 05:10:53;;;;;;;23.73;9.00;;;;;;;7.38;83.09;101273.69;5052229;28;20017;-75
2022/11/30 05:13:20;;;;;;;12.13;8.95;;;;;;;7.39;83.88;101264.75;5052592;28;20116;-74
2022/11/30 05:15:46;;;;;;;11.90;9.30;;;;;;;7.34;83.69;101277.50;5052201;28;20099;-74
2022/11/30 05:18:11;;;;;;;11.45;8.10;;;;;;;7.36;84.02;101280.09;5052208;28;20057;-75
2022/11/30 05:20:37;;;;;;;10.70;7.97;;;;;;;7.12;83.95;101260.97;5051921;28;20051;-75
2022/11/30 05:23:02;;;;;;;15.73;10.32;;;;;;;7.24;83.77;101272.78;5052411;28;20040;-74
2022/11/30 05:25:28;;;;;;;13.13;9.40;;;;;;;7.21;84.22;101292.56;5052211;28;20075;-75
2022/11/30 05:27:53;;;;;;;12.48;9.73;;;;;;;7.26;84.42;101282.44;5052290;28;20033;-75
2022/11/30 05:30:19;;;;;;;17.00;9.73;;;;;;;7.23;84.86;101279.94;5051781;28;20029;-74
2022/11/30 05:32:44;;;;;;;13.40;10.18;;;;;;;7.23;84.93;101263.88;5051992;28;20025;-75
2022/11/30 05:35:09;;;;;;;13.63;9.43;;;;;;;7.24;84.61;101276.31;5051582;28;20086;-74
2022/11/30 05:37:35;;;;;;;11.85;8.77;;;;;;;6.95;84.78;101258.38;5051532;28;20033;-76
2022/11/30 05:40:00;;;;;;;15.10;10.05;;;;;;;7.15;85.32;101286.69;5051615;28;20458;-74
2022/11/30 05:42:27;;;;;;;15.43;9.75;;;;;;;7.12;85.83;101290.41;5051192;28;20025;-74
2022/11/30 05:44:52;;;;;;;13.00;9.30;;;;;;;7.12;85.86;101291.22;5051264;28;20024;-74
2022/11/30 05:47:17;;;;;;;14.13;9.63;;;;;;;6.98;85.76;101271.56;5051428;28;20037;-75
2022/11/30 05:49:43;;;;;;;16.77;10.25;;;;;;;7.07;86.10;101300.47;5057749;28;20369;-75
2022/11/30 05:52:09;;;;;;;18.00;9.88;;;;;;;7.04;86.88;101298.84;5057939;28;20395;-75
2022/11/30 05:54:35;;;;;;;19.13;10.18;;;;;;;7.03;87.02;101286.41;5053591;28;20435;-75
2022/11/30 05:57:01;;;;;;;15.48;9.93;;;;;;;7.06;86.74;101293.41;5052698;28;20021;-75
2022/11/30 05:59:26;;;;;;;22.23;10.20;;;;;;;7.01;86.63;101279.44;5054632;28;20036;-74
2022/11/30 06:01:52;;;;;;;15.90;10.45;;;;;;;7.08;86.76;101291.50;5051916;28;20029;-76
2022/11/30 06:04:18;;;;;;;15.98;8.68;;;;;;;7.11;86.68;101294.88;5051648;28;20114;-75
2022/11/30 06:06:43;;;;;;;13.73;9.73;;;;;;;7.15;86.70;101302.72;5051688;28;20040;-76
2022/11/30 06:09:09;;;;;;;19.55;10.70;;;;;;;7.20;87.18;101317.56;5051426;28;20029;-75
2022/11/30 06:11:34;;;;;;;15.65;10.18;;;;;;;7.21;86.80;101324.66;5051342;28;20025;-77
2022/11/30 06:14:00;;;;;;;12.40;8.88;;;;;;;7.32;86.93;101327.56;5051173;28;20042;-74
2022/11/30 06:16:25;;;;;;;10.68;8.73;;;;;;;7.33;85.92;101329.31;5051015;28;20032;-74
2022/11/30 06:18:51;;;;;;;16.60;10.07;;;;;;;7.38;86.37;101331.72;5051011;28;20033;-76
2022/11/30 06:21:16;;;;;;;13.60;10.18;;;;;;;7.33;85.69;101334.66;5051340;28;20021;-73
2022/11/30 06:23:42;;;;;;;14.00;9.57;;;;;;;7.28;86.10;101319.81;5051062;28;20043;-75
2022/11/30 06:26:10;;;;;;;15.95;10.32;;;;;;;7.20;86.73;101322.91;5050652;28;20032;-75
2022/11/30 06:28:37;;;;;;;14.63;9.60;;;;;;;7.25;86.69;101342.25;5050962;28;20025;-75
2022/11/30 06:31:05;;;;;;;15.68;10.93;;;;;;;7.21;86.87;101337.16;5050432;28;20112;-74
2022/11/30 06:33:30;;;;;;;15.10;9.95;;;;;;;7.16;87.20;101348.09;5050770;28;20443;-75
2022/11/30 06:35:56;;;;;;;15.07;10.60;;;;;;;7.24;86.65;101343.22;5050953;28;20112;-74
2022/11/30 06:38:22;;;;;;;17.88;11.13;;;;;;;7.22;86.93;101347.75;5050824;28;20029;-74
2022/11/30 06:40:48;;;;;;;16.50;12.32;;;;;;;7.21;86.80;101340.72;5050745;28;20656;-75
2022/11/30 06:43:14;;;;;;;24.75;14.55;;;;;;;7.25;86.93;101347.59;5050324;28;20032;-74
2022/11/30 06:45:42;;;;;;;14.75;10.20;;;;;;;7.29;87.16;101337.59;5050624;28;20360;-75
2022/11/30 06:48:08;;;;;;;21.52;13.20;;;;;;;7.31;86.59;101347.25;5047840;28;20515;-75
2022/11/30 06:50:33;;;;;;;28.48;10.38;;;;;;;7.27;86.17;101344.84;5050526;28;20053;-74
2022/11/30 06:52:58;;;;;;;20.88;12.98;;;;;;;7.17;86.44;101331.13;5050932;28;20033;-75
2022/11/30 06:55:24;;;;;;;19.15;11.27;;;;;;;7.21;86.00;101346.06;5056458;28;20067;-75
2022/11/30 06:57:49;;;;;;;19.25;12.32;;;;;;;7.23;86.38;101346.81;5056992;28;20528;-75
2022/11/30 07:00:15;;;;;;;34.30;17.42;;;;;;;7.08;86.52;101350.34;5049208;28;20040;-75
2022/11/30 07:02:41;;;;;;;14.70;10.10;;;;;;;7.12;86.68;101351.91;5048275;28;20453;-75
2022/11/30 07:05:07;;;;;;;15.05;11.00;;;;;;;7.14;86.66;101355.38;5049967;28;20024;-75
2022/11/30 07:07:32;;;;;;;20.25;11.15;;;;;;;7.20;86.26;101371.06;5050656;28;20036;-74
2022/11/30 07:09:58;;;;;;;17.95;11.80;;;;;;;7.14;86.29;101328.59;5050148;28;20024;-75
2022/11/30 07:12:24;;;;;;;16.38;11.32;;;;;;;7.29;85.60;101341.13;5049876;28;20029;-76
2022/11/30 07:14:52;;;;;;;20.60;10.77;;;;;;;7.36;86.02;101361.25;5047686;28;20045;-74
2022/11/30 07:17:18;;;;;;;15.57;10.40;;;;;;;7.36;85.08;101366.59;5049749;28;20040;-75
2022/11/30 07:19:44;;;;;;;15.93;10.48;;;;;;;7.28;84.79;101341.22;5050065;28;20103;-76
2022/11/30 07:22:10;;;;;;;18.02;11.27;;;;;;;7.36;85.01;101339.84;5050130;28;20171;-76
2022/11/30 07:27:19;;;;;;;14.15;10.02;;;;;;;7.41;84.69;101358.28;5050194;28;20036;-76
2022/11/30 07:29:47;;;;;;;17.48;9.93;;;;;;;7.36;84.93;101339.84;5048157;28;20041;-76
2022/11/30 07:32:13;;;;;;;16.77;11.02;;;;;;;7.43;85.10;101346.53;5052586;28;20400;-74
2022/11/30 07:34:38;;;;;;;18.63;12.15;;;;;;;7.46;85.05;101359.75;5054072;28;20029;-75
2022/11/30 07:37:04;;;;;;;16.52;10.93;;;;;;;7.45;85.38;101360.72;5050340;28;20021;-76
2022/11/30 07:39:29;;;;;;;28.45;16.38;;;;;;;7.30;85.56;101325.94;5049715;28;20128;-74
2022/11/30 07:41:55;;;;;;;14.93;11.00;;;;;;;7.53;85.37;101358.47;5049464;28;20107;-76
2022/11/30 07:44:20;;;;;;;12.43;9.07;;;;;;;7.56;85.04;101374.34;5049537;28;20029;-74
2022/11/30 07:46:45;;;;;;;18.13;9.68;;;;;;;7.38;84.55;101364.69;5048946;28;20056;-76
2022/11/30 07:49:11;;;;;;;13.18;9.07;;;;;;;7.34;84.89;101376.50;5049400;28;20033;-74
2022/11/30 07:51:37;;;;;;;16.10;9.57;;;;;;;7.32;85.07;101362.34;5049053;28;20036;-78
2022/11/30 07:54:03;;;;;;;16.35;9.85;;;;;;;7.27;84.56;101356.41;5049239;28;20033;-75
2022/11/30 07:56:28;;;;;;;15.05;10.13;;;;;;;7.20;85.32;101338.09;5049211;28;20029;-75
2022/11/30 07:58:56;;;;;;;18.20;10.93;;;;;;;7.35;84.56;101372.03;5049306;28;20100;-74
2022/11/30 08:01:24;;;;;;;17.42;8.88;;;;;;;7.33;84.58;101371.25;5052570;28;20033;-74
2022/11/30 08:03:51;;;;;;;13.43;8.98;;;;;;;7.42;84.75;101389.47;5053588;28;20044;-75
2022/11/30 08:06:22;;;;;;;17.05;10.60;;;;;;;7.49;84.87;101378.31;5049802;28;20558;-74
2022/11/30 08:08:50;;;;;;;15.93;9.02;;;;;;;7.44;84.25;101383.06;5049135;28;20025;-74
2022/11/30 08:11:19;;;;;;;14.90;8.43;;;;;;;7.42;84.38;101381.44;5048671;28;20025;-76
2022/11/30 08:13:45;;;;;;;17.17;9.27;;;;;;;7.48;85.09;101370.38;5048845;28;20515;-74
2022/11/30 08:16:19;;;;;;;13.45;9.38;;;;;;;7.57;84.75;101372.53;5049171;28;20033;-75
2022/11/30 08:18:44;;;;;;;14.02;8.32;;;;;;;7.40;84.27;101349.41;5048858;28;20025;-73
2022/11/30 08:21:12;;;;;;;10.70;7.60;;;;;;;7.45;84.67;101379.47;5049243;28;20090;-75
2022/11/30 08:23:43;;;;;;;11.75;7.95;;;;;;;7.43;84.56;101381.34;5048887;28;20029;-75
2022/11/30 08:26:12;;;;;;;11.27;8.07;;;;;;;7.46;84.66;101378.50;5049171;28;20066;-75
2022/11/30 08:28:37;;;;;;;17.40;8.05;;;;;;;6.94;84.50;101280.75;5047665;28;20082;-75
2022/11/30 08:31:07;;;;;;;10.73;7.22;;;;;;;7.41;84.62;101360.97;5046534;28;20036;-74
2022/11/30 08:33:34;;;;;;;13.27;8.15;;;;;;;7.19;84.25;101342.59;5049735;28;20033;-74
2022/11/30 08:36:10;;;;;;;10.13;7.47;;;;;;;7.14;85.02;101355.38;5049123;28;20029;-74
2022/11/30 08:38:36;;;;;;;14.75;7.25;;;;;;;6.92;85.38;101350.34;5048822;28;20033;-74
2022/11/30 08:41:02;;;;;;;13.00;7.70;;;;;;;6.99;85.42;101356.22;5048612;28;20051;-75
2022/11/30 08:43:31;;;;;;;10.93;7.68;;;;;;;6.92;85.79;101362.84;5048916;28;20033;-75
2022/11/30 08:45:56;;;;;;;9.95;6.97;;;;;;;6.89;85.99;101361.19;5048812;28;20028;-75
2022/11/30 08:48:22;;;;;;;11.45;7.60;;;;;;;6.88;86.22;101361.28;5051422;28;20490;-74
2022/11/30 08:50:47;;;;;;;10.15;7.35;;;;;;;6.97;86.30;101361.63;5052130;28;20080;-74
2022/11/30 08:53:13;;;;;;;11.43;7.75;;;;;;;6.94;86.21;101352.94;5048463;28;20029;-75
2022/11/30 08:55:39;;;;;;;10.20;7.72;;;;;;;6.77;85.88;101318.22;5048619;28;20021;-76
2022/11/30 08:58:05;;;;;;;10.95;8.35;;;;;;;7.06;86.51;101352.25;5048424;28;20029;-75
2022/11/30 09:00:30;;;;;;;10.65;8.20;;;;;;;7.14;85.92;101358.03;5048780;28;20029;-73
2022/11/30 09:02:56;;;;;;;11.00;7.60;;;;;;;7.11;84.49;101355.53;5048439;28;20025;-75
2022/11/30 09:05:22;;;;;;;10.05;6.68;;;;;;;7.06;84.07;101354.94;5049785;28;20036;-73
2022/11/30 09:07:47;;;;;;;13.07;8.88;;;;;;;7.02;84.72;101351.56;5054384;28;20051;-74
2022/11/30 09:10:12;;;;;;;16.75;9.25;;;;;;;6.89;84.68;101349.63;5054998;28;20135;-75
2022/11/30 09:12:39;;;;;;;13.15;8.23;;;;;;;6.68;85.18;101297.34;5049057;28;20121;-74
2022/11/30 09:15:06;;;;;;;9.95;7.10;;;;;;;6.97;85.14;101347.41;5048518;28;20063;-74
2022/11/30 09:17:32;;;;;;;13.60;8.05;;;;;;;6.95;85.42;101343.94;5048147;28;20044;-74
2022/11/30 09:19:58;;;;;;;9.07;7.07;;;;;;;6.99;85.75;101326.78;5051601;28;20432;-76
2022/11/30 09:22:23;;;;;;;11.45;7.40;;;;;;;7.07;84.77;101348.63;5052080;28;20036;-76
2022/11/30 09:24:49;;;;;;;13.00;7.18;;;;;;;7.04;84.41;101341.63;5053069;28;20029;-74
2022/11/30 09:27:14;;;;;;;9.45;6.88;;;;;;;7.08;84.82;101355.69;5052079;28;20020;-74
2022/11/30 09:29:40;;;;;;;8.27;6.72;;;;;;;7.11;85.11;101355.53;5051854;28;20029;-76
2022/11/30 09:32:05;;;;;;;8.65;6.53;;;;;;;7.09;84.73;101349.41;5051725;28;20033;-73
2022/11/30 09:34:31;;;;;;;11.07;6.65;;;;;;;6.95;84.60;101312.72;5051596;28;20033;-74
2022/11/30 09:36:57;;;;;;;12.23;8.00;;;;;;;7.16;84.82;101337.41;5051931;28;20114;-74
2022/11/30 09:39:22;;;;;;;8.60;6.50;;;;;;;7.28;84.38;101342.06;5058133;28;20029;-75
2022/11/30 09:42:20;;;;;;;9.30;6.40;;;;;;;7.31;83.60;101343.72;5052052;28;20465;-76
2022/11/30 09:44:57;;;;;;;10.70;7.00;;;;;;;7.28;82.98;101363.47;5051740;28;20342;-75
2022/11/30 09:47:58;;;;;;;10.90;7.43;;;;;;;7.26;83.17;101356.47;5051583;28;20043;-74
2022/11/30 09:50:28;;;;;;;11.88;7.20;;;;;;;7.26;82.90;101357.34;5008776;28;20050;-75
2022/11/30 09:53:07;;;;;;;12.05;6.55;;;;;;;7.22;83.13;101350.44;5009197;28;20410;-75
2022/11/30 09:55:41;;;;;;;11.15;6.97;;;;;;;7.17;83.44;101344.50;5009219;28;20034;-75
2022/11/30 09:58:10;;;;;;;11.80;7.85;;;;;;;7.25;83.29;101347.59;5009173;28;20628;-74
2022/11/30 10:00:38;;;;;;;10.57;7.50;;;;;;;7.16;82.69;101345.44;5009101;28;20636;-74
2022/11/30 10:03:05;;;;;;;14.98;6.90;;;;;;;7.22;83.03;101369.16;5008956;28;20401;-75
2022/11/30 10:05:45;;;;;;;8.77;6.65;;;;;;;7.15;83.06;101341.06;5008880;28;20034;-76
2022/11/30 10:08:37;;;;;;;15.32;7.53;;;;;;;7.19;83.00;101318.50;4992353;28;20695;-75
2022/11/30 10:11:14;;;;;;;12.95;7.07;;;;;;;7.06;83.01;101328.19;5010216;28;20591;-74
2022/11/30 10:13:52;;;;;;;12.18;7.55;;;;;;;7.15;83.01;101330.34;5013180;28;20072;-75
2022/11/30 10:16:38;;;;;;;10.93;7.70;;;;;;;7.15;83.16;101325.00;5013105;28;20040;-76
2022/11/30 10:19:12;;;;;;;9.15;6.90;;;;;;;7.15;82.91;101329.47;5009134;28;20402;-74
2022/11/30 10:21:53;;;;;;;22.88;7.93;;;;;;;7.13;83.61;101322.41;5008640;28;20133;-74
2022/11/30 10:24:30;;;;;;;9.32;6.93;;;;;;;7.08;83.37;101318.25;5010048;28;20178;-76
2022/11/30 10:27:01;;;;;;;10.43;6.82;;;;;;;7.06;83.35;101325.50;5025004;28;20045;-74
2022/11/30 10:29:38;;;;;;;9.23;7.20;;;;;;;7.04;83.88;101324.72;5050192;28;20579;-74
2022/11/30 10:32:34;;;;;;;13.45;7.25;;;;;;;7.00;83.49;101320.50;5050577;28;20444;-76
2022/11/30 10:35:22;;;;;;;25.67;12.23;;;;;;;7.09;83.92;101320.00;5050735;28;20120;-74
2022/11/30 10:37:51;;;;;;;23.20;12.63;;;;;;;7.08;83.93;101312.91;5050761;28;20033;-77
2022/11/30 10:40:31;;;;;;;11.60;8.38;;;;;;;7.18;83.73;101318.59;5050584;28;20025;-76
2022/11/30 10:43:28;;;;;;;12.75;7.95;;;;;;;7.25;84.17;101315.47;5050660;28;20552;-75
2022/11/30 10:45:54;;;;;;;12.30;8.02;;;;;;;7.31;83.62;101309.78;5050445;28;20420;-75
2022/11/30 10:48:42;;;;;;;9.98;7.40;;;;;;;7.39;82.85;101315.59;5050420;28;20044;-76
2022/11/30 10:51:10;;;;;;;12.00;7.80;;;;;;;7.36;82.58;101317.56;5050098;28;20056;-76
2022/11/30 10:53:35;;;;;;;12.70;9.13;;;;;;;7.30;82.75;101302.72;5050810;28;20017;-75
2022/11/30 10:56:12;;;;;;;14.25;7.93;;;;;;;7.31;83.02;101314.31;5053500;28;20102;-75
2022/11/30 10:58:57;;;;;;;14.18;8.43;;;;;;;7.18;82.92;101287.38;5050144;28;20032;-74
2022/11/30 11:01:39;;;;;;;16.27;9.13;;;;;;;7.44;83.43;101316.16;5050409;28;20061;-73
2022/11/30 11:04:11;;;;;;;15.82;9.02;;;;;;;7.46;83.42;101303.56;5053529;28;20558;-76
2022/11/30 11:06:42;;;;;;;14.00;8.18;;;;;;;7.58;83.42;101313.53;5053215;28;20087;-77
2022/11/30 11:09:30;;;;;;;13.02;7.82;;;;;;;7.56;83.15;101323.50;5048985;28;20032;-75
2022/11/30 11:11:59;;;;;;;14.40;8.35;;;;;;;7.61;82.43;101308.00;5050441;28;20432;-74
2022/11/30 11:14:27;;;;;;;14.25;8.27;;;;;;;7.65;81.99;101311.38;5050385;28;20028;-75
2022/11/30 11:16:58;;;;;;;12.30;8.35;;;;;;;7.59;82.01;101282.28;5050163;28;20032;-76
2022/11/30 11:19:36;;;;;;;11.18;7.43;;;;;;;7.65;82.29;101281.94;5053789;28;20105;-74
2022/11/30 11:22:20;;;;;;;12.23;8.27;;;;;;;7.75;82.33;101266.19;5054516;28;20140;-75
2022/11/30 11:24:47;;;;;;;10.38;7.53;;;;;;;7.74;81.72;101270.69;5050650;28;20106;-74
2022/11/30 11:27:22;;;;;;;15.70;9.20;;;;;;;7.68;81.83;101271.91;5050143;28;20029;-74
2022/11/30 11:30:07;;;;;;;13.45;8.07;;;;;;;7.61;81.98;101275.88;5049994;28;20033;-75
2022/11/30 11:32:33;;;;;;;10.45;7.15;;;;;;;7.74;81.71;101291.22;5049965;28;20040;-74
2022/11/30 11:34:59;;;;;;;12.00;8.75;;;;;;;7.77;81.40;101307.16;5049800;28;20033;-75
2022/11/30 11:37:32;;;;;;;17.52;10.32;;;;;;;7.81;81.74;101324.72;5049712;28;20041;-74